Time;durP1;ratioP1;P1;durP2;ratioP2;P2;SDS_P1;SDS_P2;PMS_P1;PMS_P2;Temp;Humidity;BMP_temperature;BMP_pressure;BME280_temperature;BME280_humidity;BME280_pressure;Samples;Min_cycle;Max_cycle;Signal;HPM_P1;HPM_P2
2023/10/15 00:00:50;;;;;;;;;;;;;;;12.44;95.41;98312.88;4949192;28;19961;-67
2023/10/15 00:03:15;;;;;;;;;;;;;;;12.45;94.98;98286.25;4963362;28;20341;-69
2023/10/15 00:05:41;;;;;;;;;;;;;;;12.43;95.39;98297.56;4959669;28;19928;-69
2023/10/15 00:08:07;;;;;;;;;;;;;;;12.40;95.55;98309.13;4962264;28;20326;-69
2023/10/15 00:10:34;;;;;;;;;;;;;;;12.37;95.57;98298.81;4954995;28;19933;-69
2023/10/15 00:13:00;;;;;;;;;;;;;;;12.34;95.57;98300.31;4964412;28;19930;-69
2023/10/15 00:15:28;;;;;;;;;;;;;;;12.36;96.16;98305.44;4962976;28;19981;-69
2023/10/15 00:17:57;;;;;;;;;;;;;;;12.37;95.91;98314.47;4962871;28;19926;-68
2023/10/15 00:20:32;;;;;;;;;;;;;;;12.36;95.95;98304.66;4962469;28;20401;-66
2023/10/15 00:22:59;;;;;;;;;;;;;;;12.35;96.18;98303.84;4963089;28;20062;-68
2023/10/15 00:25:24;;;;;;;;;;;;;;;12.34;96.01;98305.78;4962791;28;20068;-69
2023/10/15 00:27:54;;;;;;;;;;;;;;;12.30;95.94;98304.78;4955706;28;20429;-68
2023/10/15 00:30:20;;;;;;;;;;;;;;;12.27;96.29;98302.72;4957428;28;19926;-67
2023/10/15 00:32:47;;;;;;;;;;;;;;;12.25;96.46;98315.09;4964077;28;19957;-66
2023/10/15 00:35:24;;;;;;;;;;;;;;;12.21;96.58;98301.28;4958702;28;20405;-66
2023/10/15 00:37:56;;;;;;;;;;;;;;;12.19;96.84;98298.03;4951972;28;20250;-66
2023/10/15 00:40:22;;;;;;;;;;;;;;;12.20;97.11;98294.97;4948339;28;19926;-67
2023/10/15 00:42:48;;;;;;;;;;;;;;;12.18;97.24;98285.47;4959237;28;19926;-65
2023/10/15 00:45:17;;;;;;;;;;;;;;;12.15;97.32;98278.69;4960390;28;20000;-66
2023/10/15 00:47:44;;;;;;;;;;;;;;;12.16;97.55;98272.09;4962768;28;19932;-68
2023/10/15 00:50:09;;;;;;;;;;;;;;;12.14;97.36;98279.00;4962990;28;20033;-68
2023/10/15 00:52:42;;;;;;;;;;;;;;;12.13;97.51;98278.22;4962056;28;20025;-69
2023/10/15 00:55:10;;;;;;;;;;;;;;;12.01;97.57;98256.94;4961461;28;19960;-67
2023/10/15 00:57:42;;;;;;;;;;;;;;;12.14;97.99;98265.31;4963521;28;19926;-69
2023/10/15 01:00:37;;;;;;;;;;;;;;;12.15;97.87;98270.47;4963904;28;20386;-69
2023/10/15 01:02:57;;;;;;;;;;;;;;;12.13;97.68;98280.97;4963385;28;19949;-67
2023/10/15 01:05:25;;;;;;;;;;;;;;;12.14;98.03;98276.28;4961643;28;20402;-68
2023/10/15 01:07:51;;;;;;;;;;;;;;;12.13;97.74;98277.41;4942068;28;19980;-69
2023/10/15 01:10:28;;;;;;;;;;;;;;;12.11;98.04;98279.66;4927624;28;19973;-68
2023/10/15 01:13:17;;;;;;;;;;;;;;;12.11;97.86;98277.75;4962447;28;19926;-68
2023/10/15 01:15:42;;;;;;;;;;;;;;;12.18;98.05;98266.31;4959392;28;19988;-68
2023/10/15 01:18:10;;;;;;;;;;;;;;;12.22;97.39;98263.69;4961628;28;20393;-68
2023/10/15 01:20:40;;;;;;;;;;;;;;;12.26;97.51;98275.66;4961958;28;19972;-68
2023/10/15 01:23:05;;;;;;;;;;;;;;;12.25;97.19;98276.75;4962351;28;19926;-69
2023/10/15 01:25:34;;;;;;;;;;;;;;;12.23;97.27;98277.09;4964683;28;19942;-66
2023/10/15 01:28:00;;;;;;;;;;;;;;;12.25;97.16;98272.09;4961948;28;19930;-66
2023/10/15 01:30:26;;;;;;;;;;;;;;;12.27;97.25;98274.50;4965747;28;19933;-69
2023/10/15 01:32:52;;;;;;;;;;;;;;;12.29;96.84;98284.00;4966199;28;19973;-69
2023/10/15 01:35:19;;;;;;;;;;;;;;;12.30;96.98;98273.88;4968101;28;20420;-68
2023/10/15 01:37:57;;;;;;;;;;;;;;;12.28;96.90;98276.91;4967108;28;19925;-68
2023/10/15 01:40:37;;;;;;;;;;;;;;;12.27;96.59;98271.78;4948413;28;19946;-69
2023/10/15 01:43:07;;;;;;;;;;;;;;;12.27;96.77;98278.03;4963705;28;19926;-69
2023/10/15 01:45:37;;;;;;;;;;;;;;;12.27;96.90;98263.56;4965583;28;19926;-69
2023/10/15 01:48:05;;;;;;;;;;;;;;;12.34;96.95;98266.59;4965619;28;20300;-69
2023/10/15 01:50:49;;;;;;;;;;;;;;;12.46;96.51;98266.75;4950741;28;19978;-68
2023/10/15 01:53:16;;;;;;;;;;;;;;;12.57;96.07;98271.91;4950118;28;20337;-69
2023/10/15 01:55:53;;;;;;;;;;;;;;;12.64;95.36;98266.72;4967100;28;19926;-67
2023/10/15 01:58:24;;;;;;;;;;;;;;;12.71;94.78;98268.97;4965048;28;20008;-69
2023/10/15 02:00:50;;;;;;;;;;;;;;;12.75;94.51;98265.25;4965217;28;20394;-67
2023/10/15 02:03:17;;;;;;;;;;;;;;;12.77;94.07;98273.13;4963966;28;20275;-68
2023/10/15 02:05:44;;;;;;;;;;;;;;;12.77;93.88;98273.94;4964846;28;19933;-69
2023/10/15 02:08:13;;;;;;;;;;;;;;;12.80;93.41;98277.97;4947190;28;19929;-69
2023/10/15 02:10:40;;;;;;;;;;;;;;;12.78;93.33;98272.00;4964550;28;19926;-68
2023/10/15 02:13:08;;;;;;;;;;;;;;;12.79;93.51;98287.31;4966713;28;20020;-69
2023/10/15 02:15:39;;;;;;;;;;;;;;;12.84;93.05;98262.47;4964446;28;20018;-68
2023/10/15 02:18:05;;;;;;;;;;;;;;;12.83;93.15;98274.56;4964771;28;20412;-69
2023/10/15 02:23:21;;;;;;;;;;;;;;;12.84;92.65;98256.97;4959793;28;19925;-66
2023/10/15 02:25:47;;;;;;;;;;;;;;;12.84;92.61;98265.22;4946468;28;20420;-67
2023/10/15 02:28:16;;;;;;;;;;;;;;;12.85;92.79;98268.75;4964440;28;19977;-66
2023/10/15 02:30:46;;;;;;;;;;;;;;;12.87;92.82;98277.44;4965901;28;19933;-66
2023/10/15 02:33:16;;;;;;;;;;;;;;;12.89;92.90;98264.25;4959292;28;19926;-66
2023/10/15 02:35:42;;;;;;;;;;;;;;;12.90;92.48;98277.59;4965472;28;20426;-67
2023/10/15 02:38:10;;;;;;;;;;;;;;;12.91;92.51;98279.22;4967690;28;19927;-66
2023/10/15 02:40:56;;;;;;;;;;;;;;;12.93;92.26;98261.63;4965172;28;19932;-66
2023/10/15 02:43:24;;;;;;;;;;;;;;;12.93;92.34;98276.16;4964816;28;20065;-67
2023/10/15 02:45:51;;;;;;;;;;;;;;;12.91;92.05;98268.25;4964271;28;20374;-67
2023/10/15 02:48:20;;;;;;;;;;;;;;;12.92;92.08;98280.03;4966794;28;19926;-67
2023/10/15 02:50:58;;;;;;;;;;;;;;;12.94;92.24;98271.47;4964061;28;20421;-66
2023/10/15 02:53:24;;;;;;;;;;;;;;;12.93;92.14;98264.38;4946373;28;20017;-66
2023/10/15 02:55:49;;;;;;;;;;;;;;;12.93;91.96;98269.84;4953654;28;20045;-66
2023/10/15 02:58:16;;;;;;;;;;;;;;;12.94;91.90;98268.72;4947568;28;19933;-66
2023/10/15 03:00:42;;;;;;;;;;;;;;;12.93;91.55;98267.94;4966807;28;20419;-68
2023/10/15 03:03:15;;;;;;;;;;;;;;;12.92;91.79;98263.56;4949482;28;20429;-67
2023/10/15 03:05:42;;;;;;;;;;;;;;;12.91;92.08;98260.00;4950009;28;19936;-69
2023/10/15 03:08:12;;;;;;;;;;;;;;;12.91;92.09;98254.53;4956496;28;19926;-69
2023/10/15 03:10:56;;;;;;;;;;;;;;;12.93;92.08;98258.88;4963179;28;19926;-69
2023/10/15 03:13:21;;;;;;;;;;;;;;;12.91;92.06;98265.50;4946243;28;19925;-70
2023/10/15 03:15:50;;;;;;;;;;;;;;;12.91;92.18;98264.72;4965222;28;19984;-66
2023/10/15 03:18:23;;;;;;;;;;;;;;;12.92;92.09;98274.53;4964476;28;20036;-66
2023/10/15 03:20:49;;;;;;;;;;;;;;;12.91;92.37;98268.25;4964974;28;20119;-69
2023/10/15 03:23:17;;;;;;;;;;;;;;;12.92;92.40;98258.09;4959157;28;20416;-68
2023/10/15 03:25:43;;;;;;;;;;;;;;;12.92;91.98;98249.88;4958645;28;20386;-70
2023/10/15 03:28:12;;;;;;;;;;;;;;;12.90;91.94;98254.88;4962543;28;19932;-69
2023/10/15 03:30:44;;;;;;;;;;;;;;;12.82;92.13;98244.72;4962195;28;19926;-69
2023/10/15 03:33:11;;;;;;;;;;;;;;;12.93;92.42;98265.19;4953853;28;19936;-67
2023/10/15 03:35:45;;;;;;;;;;;;;;;12.94;92.25;98275.03;4958456;28;20513;-69
2023/10/15 03:38:14;;;;;;;;;;;;;;;12.95;91.79;98262.91;4962846;28;19973;-68
2023/10/15 03:40:50;;;;;;;;;;;;;;;12.96;92.02;98255.50;4963676;28;19925;-69
2023/10/15 03:43:16;;;;;;;;;;;;;;;12.96;91.95;98250.00;4946479;28;20354;-66
2023/10/15 03:45:50;;;;;;;;;;;;;;;12.95;92.19;98249.19;4963056;28;19905;-67
2023/10/15 03:48:18;;;;;;;;;;;;;;;12.96;91.87;98250.81;4945589;28;19933;-65
2023/10/15 03:50:54;;;;;;;;;;;;;;;12.96;92.11;98245.31;4965074;28;19925;-69
2023/10/15 03:53:21;;;;;;;;;;;;;;;12.98;91.88;98251.28;4962797;28;20017;-66
2023/10/15 03:55:49;;;;;;;;;;;;;;;12.99;91.86;98252.09;4962749;28;19925;-66
2023/10/15 03:58:15;;;;;;;;;;;;;;;12.99;92.00;98260.31;4964759;28;19933;-66
2023/10/15 04:00:46;;;;;;;;;;;;;;;13.00;91.94;98268.22;4965676;28;20397;-66
2023/10/15 04:03:35;;;;;;;;;;;;;;;13.02;92.18;98259.66;4961784;28;19926;-65
2023/10/15 04:06:09;;;;;;;;;;;;;;;13.03;91.81;98259.34;4954644;28;20462;-66
2023/10/15 04:08:37;;;;;;;;;;;;;;;13.03;91.98;98258.53;4965856;28;19926;-66
2023/10/15 04:11:03;;;;;;;;;;;;;;;13.02;92.13;98254.97;4964903;28;19926;-66
2023/10/15 04:13:29;;;;;;;;;;;;;;;13.02;91.57;98248.69;4946687;28;19934;-66
2023/10/15 04:15:55;;;;;;;;;;;;;;;12.99;92.27;98250.16;4961890;28;19925;-67
2023/10/15 04:18:23;;;;;;;;;;;;;;;12.99;91.97;98255.63;4964616;28;19930;-66
2023/10/15 04:20:48;;;;;;;;;;;;;;;13.01;91.86;98258.06;4965120;28;20012;-70
2023/10/15 04:23:31;;;;;;;;;;;;;;;13.03;91.90;98256.59;4946893;28;20539;-69
2023/10/15 04:25:58;;;;;;;;;;;;;;;13.03;91.89;98259.34;4965186;28;20455;-66
2023/10/15 04:28:25;;;;;;;;;;;;;;;13.04;91.63;98265.63;4963559;28;19933;-66
2023/10/15 04:30:51;;;;;;;;;;;;;;;13.05;91.43;98276.28;4964067;28;19937;-66
2023/10/15 04:33:19;;;;;;;;;;;;;;;13.03;91.79;98273.06;4964712;28;19969;-66
2023/10/15 04:35:48;;;;;;;;;;;;;;;13.04;91.59;98280.16;4962829;28;19926;-66
2023/10/15 04:38:21;;;;;;;;;;;;;;;13.04;91.59;98277.41;4945518;28;19926;-66
2023/10/15 04:41:00;;;;;;;;;;;;;;;13.01;91.64;98280.00;4959392;28;19953;-66
2023/10/15 04:43:26;;;;;;;;;;;;;;;13.02;91.81;98278.88;4962305;28;19937;-66
2023/10/15 04:45:54;;;;;;;;;;;;;;;13.02;91.73;98278.88;4963304;28;19926;-66
2023/10/15 04:48:26;;;;;;;;;;;;;;;13.02;92.14;98289.84;4962637;28;19965;-66
2023/10/15 04:50:52;;;;;;;;;;;;;;;13.04;92.17;98287.56;4964543;28;20429;-66
2023/10/15 04:55:47;;;;;;;;;;;;;;;13.01;92.53;98301.94;4963977;28;19965;-66
2023/10/15 04:58:13;;;;;;;;;;;;;;;13.00;92.66;98306.63;4954691;28;19979;-66
2023/10/15 05:00:39;;;;;;;;;;;;;;;12.96;93.25;98307.63;4964016;28;19930;-67
2023/10/15 05:03:05;;;;;;;;;;;;;;;12.88;93.98;98301.81;4963648;28;20175;-66
2023/10/15 05:05:31;;;;;;;;;;;;;;;12.82;94.80;98310.53;4961621;28;19929;-66
2023/10/15 05:07:59;;;;;;;;;;;;;;;12.76;95.41;98321.69;4950442;28;20475;-66
2023/10/15 05:10:29;;;;;;;;;;;;;;;12.74;96.17;98323.16;4951878;28;19926;-66
2023/10/15 05:12:55;;;;;;;;;;;;;;;12.71;96.85;98308.13;4968119;28;19969;-66
2023/10/15 05:15:21;;;;;;;;;;;;;;;12.67;97.62;98312.66;4961810;28;20008;-68
2023/10/15 05:17:47;;;;;;;;;;;;;;;12.62;98.28;98313.63;4967285;28;19972;-70
2023/10/15 05:20:13;;;;;;;;;;;;;;;12.58;98.42;98301.72;4951705;28;19941;-69
2023/10/15 05:22:39;;;;;;;;;;;;;;;12.55;99.26;98304.28;4968012;28;19933;-69
2023/10/15 05:25:15;;;;;;;;;;;;;;;12.48;99.61;98307.53;4953387;28;19925;-66
2023/10/15 05:27:42;;;;;;;;;;;;;;;12.45;99.90;98305.44;4946784;28;20454;-69
2023/10/15 05:30:11;;;;;;;;;;;;;;;12.42;100.00;98312.38;4960510;28;19926;-69
2023/10/15 05:32:37;;;;;;;;;;;;;;;12.43;100.00;98321.41;4965531;28;20004;-69
2023/10/15 05:35:03;;;;;;;;;;;;;;;12.43;100.00;98313.19;4965856;28;20420;-69
2023/10/15 05:37:29;;;;;;;;;;;;;;;12.41;100.00;98312.69;4949296;28;19926;-69
2023/10/15 05:39:55;;;;;;;;;;;;;;;12.40;100.00;98324.78;4947761;28;19981;-69
2023/10/15 05:42:21;;;;;;;;;;;;;;;12.35;100.00;98331.25;4948197;28;19930;-69
2023/10/15 05:44:48;;;;;;;;;;;;;;;12.31;100.00;98311.88;4967107;28;19929;-69
2023/10/15 05:47:14;;;;;;;;;;;;;;;12.29;100.00;98305.13;4958863;28;20392;-69
2023/10/15 05:49:40;;;;;;;;;;;;;;;12.27;100.00;98319.16;4948539;28;19930;-69
2023/10/15 05:52:06;;;;;;;;;;;;;;;12.26;100.00;98327.72;4963232;28;20209;-69
2023/10/15 05:54:32;;;;;;;;;;;;;;;12.25;100.00;98326.06;4969249;28;19941;-69
2023/10/15 05:56:58;;;;;;;;;;;;;;;12.21;100.00;98336.88;4964533;28;19949;-68
2023/10/15 05:59:23;;;;;;;;;;;;;;;12.13;100.00;98329.44;4966325;28;19936;-68
2023/10/15 06:01:51;;;;;;;;;;;;;;;12.14;100.00;98315.44;4965049;28;19936;-69
2023/10/15 06:04:17;;;;;;;;;;;;;;;12.18;100.00;98321.09;4965324;28;19973;-68
2023/10/15 06:06:43;;;;;;;;;;;;;;;12.22;100.00;98308.34;4963272;28;19958;-69
2023/10/15 06:09:11;;;;;;;;;;;;;;;12.24;100.00;98310.75;4965677;28;20485;-69
2023/10/15 06:11:37;;;;;;;;;;;;;;;12.22;100.00;98311.09;4963777;28;20020;-69
2023/10/15 06:14:05;;;;;;;;;;;;;;;12.22;100.00;98311.09;4947979;28;19948;-68
2023/10/15 06:16:31;;;;;;;;;;;;;;;12.26;100.00;98306.56;4965843;28;20332;-68
2023/10/15 06:18:58;;;;;;;;;;;;;;;12.25;100.00;98298.66;4947419;28;19930;-69
2023/10/15 06:21:24;;;;;;;;;;;;;;;12.30;100.00;98314.97;4955864;28;19984;-68
2023/10/15 06:23:50;;;;;;;;;;;;;;;12.31;100.00;98311.09;4966660;28;20341;-69
2023/10/15 06:26:15;;;;;;;;;;;;;;;12.27;100.00;98321.88;4963941;28;19960;-68
2023/10/15 06:28:41;;;;;;;;;;;;;;;12.26;100.00;98319.50;4963815;28;19930;-68
2023/10/15 06:31:09;;;;;;;;;;;;;;;12.18;100.00;98323.84;4965135;28;19932;-69
2023/10/15 06:33:35;;;;;;;;;;;;;;;12.17;100.00;98328.50;4963542;28;19930;-67
2023/10/15 06:36:02;;;;;;;;;;;;;;;12.14;100.00;98336.53;4965284;28;20405;-72
2023/10/15 06:38:28;;;;;;;;;;;;;;;12.09;100.00;98331.22;4965602;28;19992;-68
2023/10/15 06:40:53;;;;;;;;;;;;;;;12.04;100.00;98335.75;4966594;28;20346;-68
2023/10/15 06:43:19;;;;;;;;;;;;;;;11.97;100.00;98357.28;4963005;28;19958;-68
2023/10/15 06:45:45;;;;;;;;;;;;;;;11.84;100.00;98358.22;4949585;28;19933;-68
2023/10/15 06:48:11;;;;;;;;;;;;;;;11.67;100.00;98373.47;4968144;28;19961;-67
2023/10/15 06:50:37;;;;;;;;;;;;;;;11.54;100.00;98374.38;4948555;28;19930;-65
2023/10/15 06:53:05;;;;;;;;;;;;;;;11.41;100.00;98379.66;4965579;28;19932;-66
2023/10/15 06:55:31;;;;;;;;;;;;;;;11.21;100.00;98378.28;4965478;28;20316;-66
2023/10/15 06:57:57;;;;;;;;;;;;;;;11.06;100.00;98363.88;4963878;28;19926;-66
2023/10/15 07:00:23;;;;;;;;;;;;;;;11.02;100.00;98362.88;4964080;28;19932;-66
2023/10/15 07:02:49;;;;;;;;;;;;;;;10.93;100.00;98367.50;4966182;28;19925;-66
2023/10/15 07:05:20;;;;;;;;;;;;;;;10.88;100.00;98384.03;4964750;28;19981;-66
2023/10/15 07:07:46;;;;;;;;;;;;;;;10.76;97.67;98390.84;4967742;28;19926;-68
2023/10/15 07:10:15;;;;;;;;;;;;;;;10.63;93.37;98388.97;4965229;28;20045;-68
2023/10/15 07:12:42;;;;;;;;;;;;;;;10.44;91.87;98387.22;4962453;28;19926;-69
2023/10/15 07:15:09;;;;;;;;;;;;;;;10.42;92.34;98394.94;4963711;28;19931;-65
2023/10/15 07:17:38;;;;;;;;;;;;;;;10.36;90.10;98404.31;4951842;28;19933;-67
2023/10/15 07:20:04;;;;;;;;;;;;;;;10.30;89.81;98392.72;4947447;28;19925;-66
2023/10/15 07:22:30;;;;;;;;;;;;;;;10.28;89.31;98389.47;4964881;28;19926;-68
2023/10/15 07:24:56;;;;;;;;;;;;;;;10.22;88.08;98387.97;4965905;28;19926;-68
2023/10/15 07:27:23;;;;;;;;;;;;;;;10.23;87.97;98399.72;4965582;28;19930;-69
2023/10/15 07:29:49;;;;;;;;;;;;;;;10.24;87.57;98388.47;4959569;28;19972;-69
2023/10/15 07:32:15;;;;;;;;;;;;;;;10.19;85.67;98394.84;4966459;28;20025;-69
2023/10/15 07:34:41;;;;;;;;;;;;;;;10.18;84.35;98395.97;4966325;28;20437;-68
2023/10/15 07:37:07;;;;;;;;;;;;;;;10.18;84.79;98395.16;4968268;28;19960;-69
2023/10/15 07:39:32;;;;;;;;;;;;;;;10.15;85.26;98407.50;4967459;28;20035;-69
2023/10/15 07:41:58;;;;;;;;;;;;;;;10.14;85.21;98400.44;4965440;28;19981;-69
2023/10/15 07:44:25;;;;;;;;;;;;;;;10.19;85.68;98400.31;4959491;28;20405;-69
2023/10/15 07:46:52;;;;;;;;;;;;;;;10.23;86.55;98394.25;4961827;28;20344;-69
2023/10/15 07:49:18;;;;;;;;;;;;;;;10.32;86.84;98395.13;4943295;28;19943;-69
2023/10/15 07:51:47;;;;;;;;;;;;;;;10.40;86.95;98394.41;4960032;28;20024;-69
2023/10/15 07:54:14;;;;;;;;;;;;;;;10.37;86.73;98384.06;4964677;28;19926;-69
2023/10/15 07:56:40;;;;;;;;;;;;;;;10.41;86.69;98392.50;4963104;28;19930;-69
2023/10/15 07:59:08;;;;;;;;;;;;;;;10.41;87.00;98387.84;4948374;28;20425;-69
2023/10/15 08:01:38;;;;;;;;;;;;;;;10.47;86.85;98394.81;4944623;28;19926;-68
2023/10/15 08:04:04;;;;;;;;;;;;;;;10.57;86.75;98391.03;4945491;28;19972;-69
2023/10/15 08:06:30;;;;;;;;;;;;;;;10.65;85.35;98392.22;4962549;28;20437;-69
2023/10/15 08:08:55;;;;;;;;;;;;;;;10.69;84.69;98395.16;4964998;28;20392;-69
2023/10/15 08:11:21;;;;;;;;;;;;;;;10.63;81.59;98398.00;4937903;28;19937;-69
2023/10/15 08:13:47;;;;;;;;;;;;;;;10.61;82.87;98391.22;4962764;28;20036;-69
2023/10/15 08:16:13;;;;;;;;;;;;;;;10.67;83.16;98389.19;4961666;28;20028;-69
2023/10/15 08:18:42;;;;;;;;;;;;;;;10.61;81.89;98386.59;4963609;28;20582;-69
2023/10/15 08:21:11;;;;;;;;;;;;;;;10.55;80.91;98384.28;4961500;28;19925;-70
2023/10/15 08:23:38;;;;;;;;;;;;;;;10.51;79.76;98386.81;4945867;28;19926;-69
2023/10/15 08:26:05;;;;;;;;;;;;;;;10.48;80.16;98384.69;4945872;28;19926;-69
2023/10/15 08:28:31;;;;;;;;;;;;;;;10.45;79.70;98385.28;4960729;28;19945;-69
2023/10/15 08:30:57;;;;;;;;;;;;;;;10.41;79.27;98389.75;4943803;28;19926;-69
2023/10/15 08:33:23;;;;;;;;;;;;;;;10.48;78.52;98396.41;4955069;28;19926;-69
2023/10/15 08:35:50;;;;;;;;;;;;;;;10.57;78.88;98391.03;4959992;28;20386;-69
2023/10/15 08:38:16;;;;;;;;;;;;;;;10.60;78.04;98406.81;4962590;28;19986;-66
2023/10/15 08:40:45;;;;;;;;;;;;;;;10.52;76.64;98399.34;4966184;28;19926;-67
2023/10/15 08:43:12;;;;;;;;;;;;;;;10.47;76.62;98411.19;4963541;28;19925;-67
2023/10/15 08:45:39;;;;;;;;;;;;;;;10.53;76.24;98414.63;4951292;28;20032;-67
2023/10/15 08:48:09;;;;;;;;;;;;;;;10.62;76.52;98422.91;4958874;28;19926;-66
2023/10/15 08:50:36;;;;;;;;;;;;;;;10.67;77.25;98416.50;4945422;28;19945;-66
2023/10/15 08:53:04;;;;;;;;;;;;;;;10.59;76.70;98413.38;4962651;28;20316;-66
2023/10/15 08:55:33;;;;;;;;;;;;;;;10.58;77.40;98419.97;4944973;28;20286;-67
2023/10/15 08:57:59;;;;;;;;;;;;;;;10.58;77.42;98411.78;4960553;28;19926;-67
2023/10/15 09:00:26;;;;;;;;;;;;;;;10.64;77.54;98407.00;4962132;28;19961;-67
2023/10/15 09:02:52;;;;;;;;;;;;;;;10.64;77.71;98399.63;4945307;28;20389;-67
2023/10/15 09:05:18;;;;;;;;;;;;;;;10.68;77.44;98397.06;4946073;28;20382;-67
2023/10/15 09:07:47;;;;;;;;;;;;;;;10.70;76.95;98386.66;4946595;28;19926;-67
2023/10/15 09:10:16;;;;;;;;;;;;;;;10.75;76.56;98391.97;4937059;28;19927;-69
2023/10/15 09:12:42;;;;;;;;;;;;;;;10.67;75.28;98389.97;4961916;28;20309;-69
2023/10/15 09:15:17;;;;;;;;;;;;;;;10.61;75.89;98394.78;4945249;28;19926;-69
2023/10/15 09:17:49;;;;;;;;;;;;;;;10.67;76.13;98389.97;4926179;29;19926;-69
2023/10/15 09:20:26;;;;;;;;;;;;;;;10.68;76.17;98380.66;4948345;28;19934;-69
2023/10/15 09:22:51;;;;;;;;;;;;;;;10.73;76.16;98383.28;4962357;28;19930;-66
2023/10/15 09:25:19;;;;;;;;;;;;;;;10.78;76.46;98376.88;4961296;28;20386;-66
2023/10/15 09:27:45;;;;;;;;;;;;;;;10.83;77.00;98381.41;4963218;28;19961;-67
2023/10/15 09:30:20;;;;;;;;;;;;;;;10.86;76.03;98375.34;4963362;28;19925;-66
2023/10/15 09:32:47;;;;;;;;;;;;;;;10.88;76.10;98382.09;4962590;28;19998;-69
2023/10/15 09:35:13;;;;;;;;;;;;;;;10.95;76.47;98391.78;4963215;28;20020;-69
2023/10/15 09:37:39;;;;;;;;;;;;;;;11.03;76.84;98385.56;4954635;28;19941;-69
2023/10/15 09:40:22;;;;;;;;;;;;;;;11.04;77.24;98389.91;4961073;28;19946;-69
2023/10/15 09:42:53;;;;;;;;;;;;;;;10.97;77.37;98397.75;4959378;28;20402;-69
2023/10/15 09:45:19;;;;;;;;;;;;;;;10.91;76.97;98399.81;4943004;28;19927;-69
2023/10/15 09:47:48;;;;;;;;;;;;;;;10.74;77.47;98393.09;4926347;29;19932;-67
2023/10/15 09:50:16;;;;;;;;;;;;;;;10.70;78.30;98389.38;4957628;28;19932;-66
2023/10/15 09:52:44;;;;;;;;;;;;;;;10.64;78.84;98375.03;4953873;28;19933;-69
2023/10/15 09:55:11;;;;;;;;;;;;;;;10.74;79.31;98387.63;4950492;28;20017;-68
2023/10/15 09:57:38;;;;;;;;;;;;;;;10.78;78.73;98398.75;4965006;28;19926;-69
2023/10/15 10:00:10;;;;;;;;;;;;;;;10.77;77.91;98397.94;4948351;28;20341;-68
2023/10/15 10:02:44;;;;;;;;;;;;;;;10.75;77.30;98405.66;4932177;28;19926;-69
2023/10/15 10:05:17;;;;;;;;;;;;;;;10.82;77.54;98391.53;4949009;28;19965;-66
2023/10/15 10:08:01;;;;;;;;;;;;;;;10.96;77.68;98394.19;4964292;28;19933;-67
2023/10/15 10:10:37;;;;;;;;;;;;;;;11.10;77.32;98393.31;4965354;28;20350;-67
2023/10/15 10:13:21;;;;;;;;;;;;;;;11.18;76.84;98387.13;4966838;28;20072;-67
2023/10/15 10:15:59;;;;;;;;;;;;;;;11.19;76.25;98386.00;4939335;28;19926;-67
2023/10/15 10:18:27;;;;;;;;;;;;;;;11.26;76.64;98386.34;4948593;28;20024;-67
2023/10/15 10:20:55;;;;;;;;;;;;;;;11.37;76.65;98373.19;4965966;28;19933;-67
2023/10/15 10:23:22;;;;;;;;;;;;;;;11.41;76.56;98381.56;4969917;28;20398;-67
2023/10/15 10:25:49;;;;;;;;;;;;;;;11.46;76.13;98376.78;4964462;28;20305;-67
2023/10/15 10:28:15;;;;;;;;;;;;;;;11.45;76.23;98391.59;4938416;28;19929;-67
2023/10/15 10:30:54;;;;;;;;;;;;;;;11.33;76.39;98394.91;4965687;28;20357;-66
2023/10/15 10:33:45;;;;;;;;;;;;;;;11.27;76.74;98385.22;4951464;28;20375;-66
2023/10/15 10:36:15;;;;;;;;;;;;;;;11.22;77.29;98388.09;4619236;28;10000544;-67
2023/10/15 10:38:41;;;;;;;;;;;;;;;11.18;77.28;98401.59;4963740;28;19926;-67
2023/10/15 10:41:12;;;;;;;;;;;;;;;11.20;77.50;98399.34;4947523;28;19933;-66
2023/10/15 10:43:40;;;;;;;;;;;;;;;11.22;77.45;98399.03;4959936;28;19926;-67
2023/10/15 10:46:07;;;;;;;;;;;;;;;11.23;77.40;98391.63;4966727;28;19926;-69
2023/10/15 10:48:35;;;;;;;;;;;;;;;11.26;77.39;98397.28;4950717;28;20239;-66
2023/10/15 10:51:21;;;;;;;;;;;;;;;11.21;77.74;98400.94;4968076;28;20409;-69
2023/10/15 10:54:06;;;;;;;;;;;;;;;11.23;77.78;98406.13;4961668;28;19933;-69
2023/10/15 10:56:46;;;;;;;;;;;;;;;11.16;77.99;98397.53;4960590;28;19926;-69
2023/10/15 10:59:13;;;;;;;;;;;;;;;11.18;78.61;98401.59;4961018;28;20481;-68
2023/10/15 11:01:40;;;;;;;;;;;;;;;11.21;78.41;98389.22;4946690;28;19945;-69
2023/10/15 11:04:06;;;;;;;;;;;;;;;11.34;78.63;98376.56;4959780;28;19930;-69
2023/10/15 11:06:32;;;;;;;;;;;;;;;11.44;77.74;98372.72;4963291;28;19949;-69
2023/10/15 11:08:58;;;;;;;;;;;;;;;11.45;77.52;98388.84;4956893;28;19930;-69
2023/10/15 11:11:24;;;;;;;;;;;;;;;11.46;77.27;98392.38;4946060;28;19972;-69
2023/10/15 11:13:50;;;;;;;;;;;;;;;11.44;76.95;98389.16;4962218;28;19930;-69
2023/10/15 11:16:16;;;;;;;;;;;;;;;11.42;77.26;98394.13;4946570;28;19926;-66
2023/10/15 11:18:46;;;;;;;;;;;;;;;11.43;77.07;98401.22;4945073;28;19930;-67
2023/10/15 11:21:12;;;;;;;;;;;;;;;11.35;76.61;98391.84;4962565;28;19930;-69
2023/10/15 11:23:41;;;;;;;;;;;;;;;11.57;76.60;98414.84;4959686;28;19936;-67
2023/10/15 11:26:08;;;;;;;;;;;;;;;11.58;76.22;98416.44;4960730;28;19933;-67
2023/10/15 11:28:35;;;;;;;;;;;;;;;11.60;76.50;98406.78;4960001;28;19926;-67
2023/10/15 11:31:02;;;;;;;;;;;;;;;11.64;76.28;98404.22;4963110;28;20361;-67
2023/10/15 11:33:28;;;;;;;;;;;;;;;11.69;76.67;98404.06;4967109;28;19926;-67
2023/10/15 11:35:56;;;;;;;;;;;;;;;11.72;76.22;98408.13;4962934;28;20385;-67
2023/10/15 11:38:31;;;;;;;;;;;;;;;11.63;76.08;98411.63;4945529;28;19926;-70
2023/10/15 11:40:57;;;;;;;;;;;;;;;11.53;75.88;98411.09;4963451;28;20276;-69
2023/10/15 11:43:23;;;;;;;;;;;;;;;11.46;76.01;98406.06;4959848;28;19981;-70
2023/10/15 11:45:49;;;;;;;;;;;;;;;11.52;75.89;98404.00;4958237;28;19932;-69
2023/10/15 11:48:21;;;;;;;;;;;;;;;11.61;74.68;98411.13;4941565;28;19949;-70
2023/10/15 11:50:48;;;;;;;;;;;;;;;11.58;74.63;98416.44;4962420;28;19926;-69
2023/10/15 11:53:18;;;;;;;;;;;;;;;11.57;74.47;98414.84;4962829;28;19926;-70
2023/10/15 11:55:47;;;;;;;;;;;;;;;11.55;74.74;98404.19;4959015;28;19926;-70
2023/10/15 11:58:13;;;;;;;;;;;;;;;11.56;74.72;98403.06;4956743;28;19933;-70
2023/10/15 12:00:39;;;;;;;;;;;;;;;11.59;75.23;98416.13;4945156;28;19964;-70
2023/10/15 12:03:09;;;;;;;;;;;;;;;11.71;74.30;98414.72;4960771;28;19961;-70
2023/10/15 12:05:35;;;;;;;;;;;;;;;11.83;73.51;98414.94;4958171;28;20337;-70
2023/10/15 12:08:03;;;;;;;;;;;;;;;11.74;73.90;98406.69;4962281;28;19926;-70
2023/10/15 12:10:30;;;;;;;;;;;;;;;11.71;74.04;98409.25;4961853;28;19930;-70
2023/10/15 12:12:56;;;;;;;;;;;;;;;11.58;74.04;98409.03;4942667;28;19972;-69
2023/10/15 12:15:22;;;;;;;;;;;;;;;11.49;74.54;98408.97;4944737;28;19926;-70
2023/10/15 12:17:48;;;;;;;;;;;;;;;11.40;74.86;98421.00;4960624;28;19936;-69
2023/10/15 12:20:17;;;;;;;;;;;;;;;11.32;75.21;98403.44;4941411;28;20275;-69
2023/10/15 12:22:43;;;;;;;;;;;;;;;11.26;75.70;98400.00;4945711;28;19932;-69
2023/10/15 12:25:09;;;;;;;;;;;;;;;11.17;75.54;98389.03;4961222;28;20020;-69
2023/10/15 12:27:37;;;;;;;;;;;;;;;10.98;75.64;98372.03;4964683;28;20374;-69
2023/10/15 12:30:07;;;;;;;;;;;;;;;11.13;75.16;98404.47;4961885;28;19926;-70
2023/10/15 12:32:33;;;;;;;;;;;;;;;11.15;75.37;98402.22;4958031;28;20025;-69
2023/10/15 12:35:08;;;;;;;;;;;;;;;11.19;75.72;98400.47;4957601;28;20021;-70
2023/10/15 12:37:34;;;;;;;;;;;;;;;11.21;75.60;98397.41;4939991;28;20050;-69
2023/10/15 12:40:00;;;;;;;;;;;;;;;11.28;75.96;98389.56;4936918;28;19966;-69
2023/10/15 12:42:26;;;;;;;;;;;;;;;11.32;75.72;98396.03;4934867;28;19933;-69
2023/10/15 12:44:53;;;;;;;;;;;;;;;11.33;75.49;98403.13;4934587;28;19965;-70
2023/10/15 12:47:19;;;;;;;;;;;;;;;11.29;74.66;98402.13;4950743;28;19933;-69
2023/10/15 12:49:45;;;;;;;;;;;;;;;11.09;74.72;98388.97;4954080;28;19930;-69
2023/10/15 12:52:11;;;;;;;;;;;;;;;11.11;74.74;98408.63;4962622;28;19925;-70
2023/10/15 12:54:37;;;;;;;;;;;;;;;11.07;74.93;98411.16;4963627;28;19957;-67
2023/10/15 12:57:04;;;;;;;;;;;;;;;11.04;74.27;98406.31;4941390;28;19980;-67